Time;durP1;ratioP1;P1;durP2;ratioP2;P2;SDS_P1;SDS_P2;PMS_P1;PMS_P2;Temp;Humidity;BMP_temperature;BMP_pressure;BME280_temperature;BME280_humidity;BME280_pressure;Samples;Min_cycle;Max_cycle;Signal;HPM_P1;HPM_P2
2022/02/09 00:07:22;;;;;;;;;;;8.50;99.90;;;;;;5215707;27;43404;-80
2022/02/09 00:09:49;;;;;;;;;;;8.50;99.90;;;;;;5197318;27;42518;-80
2022/02/09 00:12:26;;;;;;;;;;;8.50;99.90;;;;;;5196931;27;44047;-80
2022/02/09 00:15:19;;;;;;;;;;;8.50;99.90;;;;;;5215849;27;44754;-80
2022/02/09 00:28:24;;;;;;;;;;;8.40;99.90;;;;;;5215694;27;43051;-80
2022/02/09 00:41:57;;;;;;;;;;;8.50;99.90;;;;;;5215677;27;44283;-80
2022/02/09 00:45:01;;;;;;;;;;;8.50;99.90;;;;;;5197013;27;43572;-80
2022/02/09 01:32:58;;;;;;;;;;;8.40;99.90;;;;;;5216362;27;43989;-80
2022/02/09 01:56:25;;;;;;;;;;;8.40;99.90;;;;;;5215895;27;43578;-80
2022/02/09 01:58:52;;;;;;;;;;;8.40;99.90;;;;;;5196393;27;45811;-80
2022/02/09 02:01:19;;;;;;;;;;;8.40;99.90;;;;;;5196283;27;44093;-80
2022/02/09 02:03:46;;;;;;;;;;;8.40;99.90;;;;;;5196251;27;43429;-80
2022/02/09 02:06:15;;;;;;;;;;;8.40;99.90;;;;;;5214958;27;44391;-80
2022/02/09 02:08:43;;;;;;;;;;;8.40;99.90;;;;;;5215007;27;42951;-80
2022/02/09 02:11:20;;;;;;;;;;;8.40;99.90;;;;;;5215749;27;43971;-80
2022/02/09 02:19:08;;;;;;;;;;;8.40;99.90;;;;;;5215126;27;44521;-80
2022/02/09 02:43:24;;;;;;;;;;;8.40;99.90;;;;;;5216513;27;44754;-80
2022/02/09 03:13:02;;;;;;;;;;;8.40;99.90;;;;;;5216211;27;43723;-80
2022/02/09 03:17:38;;;;;;;;;;;8.40;99.90;;;;;;5216793;27;44776;-80
2022/02/09 03:20:28;;;;;;;;;;;8.40;99.90;;;;;;5216303;27;44910;-80
2022/02/09 03:23:15;;;;;;;;;;;8.40;99.90;;;;;;5198652;27;19988;-80
2022/02/09 03:31:09;;;;;;;;;;;8.40;99.90;;;;;;5216921;27;44693;-80
2022/02/09 03:47:30;;;;;;;;;;;8.40;99.90;;;;;;5215951;27;43643;-80
2022/02/09 03:58:05;;;;;;;;;;;8.40;99.90;;;;;;5216696;27;43990;-80
2022/02/09 04:00:36;;;;;;;;;;;8.30;99.90;;;;;;5197116;27;43830;-80
2022/02/09 04:03:05;;;;;;;;;;;8.40;99.90;;;;;;5216283;27;43304;-80
2022/02/09 04:05:32;;;;;;;;;;;8.40;99.90;;;;;;5197442;27;43836;-80
2022/02/09 04:08:00;;;;;;;;;;;8.40;99.90;;;;;;5215893;27;43224;-80
2022/02/09 04:10:36;;;;;;;;;;;8.40;99.90;;;;;;5215797;27;43482;-80
2022/02/09 04:13:25;;;;;;;;;;;8.40;99.90;;;;;;5197655;27;43435;-80
2022/02/09 04:40:04;;;;;;;;;;;8.40;99.90;;;;;;5215655;27;43645;-79
2022/02/09 04:50:26;;;;;;;;;;;8.40;99.90;;;;;;5215622;27;42875;-80
2022/02/09 04:55:45;;;;;;;;;;;8.40;99.90;;;;;;5215579;27;43494;-80
2022/02/09 05:22:38;;;;;;;;;;;8.40;99.90;;;;;;5215468;27;42245;-80
2022/02/09 05:28:01;;;;;;;;;;;8.40;99.90;;;;;;5215439;27;43897;-80
2022/02/09 05:30:32;;;;;;;;;;;8.40;99.90;;;;;;5197695;27;44560;-80
2022/02/09 05:32:59;;;;;;;;;;;8.40;99.90;;;;;;5196369;27;44399;-80
2022/02/09 05:35:26;;;;;;;;;;;8.40;99.90;;;;;;5215243;27;43332;-80
2022/02/09 05:37:54;;;;;;;;;;;8.40;99.90;;;;;;5215478;27;43851;-80
2022/02/09 05:40:21;;;;;;;;;;;8.40;99.90;;;;;;5215267;27;44051;-80
2022/02/09 05:42:48;;;;;;;;;;;8.40;99.90;;;;;;5196502;27;43714;-80
2022/02/09 05:45:17;;;;;;;;;;;8.40;99.90;;;;;;5215263;27;44076;-80
2022/02/09 05:53:16;;;;;;;;;;;8.40;99.90;;;;;;5215676;27;43881;-80
2022/02/09 05:56:05;;;;;;;;;;;8.40;99.90;;;;;;5196848;27;44792;-80
2022/02/09 05:58:36;;;;;;;;;;;8.40;99.90;;;;;;5215864;27;45027;-80
2022/02/09 06:01:04;;;;;;;;;;;8.40;99.90;;;;;;5196974;27;44977;-80
2022/02/09 06:03:31;;;;;;;;;;;8.30;99.90;;;;;;5196208;27;43655;-80
2022/02/09 06:05:58;;;;;;;;;;;8.40;99.90;;;;;;5196419;27;44083;-80
2022/02/09 06:08:26;;;;;;;;;;;8.40;99.90;;;;;;5196260;27;42921;-80
2022/02/09 06:11:08;;;;;;;;;;;8.40;99.90;;;;;;5196339;27;42901;-80
2022/02/09 06:21:25;;;;;;;;;;;8.40;99.90;;;;;;5215230;27;43439;-80
2022/02/09 06:23:52;;;;;;;;;;;8.30;99.90;;;;;;5196288;27;42862;-80
2022/02/09 06:26:19;;;;;;;;;;;8.30;99.90;;;;;;5196814;27;43352;-80
2022/02/09 06:28:47;;;;;;;;;;;8.40;99.90;;;;;;5196049;27;45822;-80
2022/02/09 06:31:15;;;;;;;;;;;8.30;99.90;;;;;;5196885;27;44647;-80
2022/02/09 06:33:42;;;;;;;;;;;8.40;99.90;;;;;;5196086;27;43256;-80
2022/02/09 06:36:10;;;;;;;;;;;8.40;99.90;;;;;;5196805;27;43525;-80
2022/02/09 06:38:40;;;;;;;;;;;8.30;99.90;;;;;;5215414;27;43993;-80
2022/02/09 06:41:07;;;;;;;;;;;8.40;99.90;;;;;;5215068;27;43589;-80
2022/02/09 06:43:35;;;;;;;;;;;8.30;99.90;;;;;;5196651;27;43323;-80
2022/02/09 06:46:02;;;;;;;;;;;8.30;99.90;;;;;;5196861;27;43939;-80
2022/02/09 06:48:30;;;;;;;;;;;8.40;99.90;;;;;;5214773;27;43139;-80
2022/02/09 06:51:07;;;;;;;;;;;8.40;99.90;;;;;;5196328;27;45365;-80
2022/02/09 06:53:43;;;;;;;;;;;8.40;99.90;;;;;;5215342;27;44107;-79
2022/02/09 06:56:37;;;;;;;;;;;8.40;99.90;;;;;;5201705;27;44520;-80
2022/02/09 06:59:20;;;;;;;;;;;8.40;99.90;;;;;;5215391;27;43927;-80
2022/02/09 07:01:47;;;;;;;;;;;8.40;99.90;;;;;;5197257;27;20006;-80
2022/02/09 07:04:14;;;;;;;;;;;8.30;99.90;;;;;;5215212;27;45693;-80
2022/02/09 07:06:42;;;;;;;;;;;8.30;99.90;;;;;;5214741;27;42721;-80
2022/02/09 07:09:09;;;;;;;;;;;8.40;99.90;;;;;;5214814;27;43919;-80
2022/02/09 07:11:38;;;;;;;;;;;8.30;99.90;;;;;;5196322;27;43983;-80
2022/02/09 07:14:06;;;;;;;;;;;8.30;99.90;;;;;;5196013;27;43567;-80
2022/02/09 07:16:33;;;;;;;;;;;8.30;99.90;;;;;;5214981;27;44073;-80
2022/02/09 07:19:04;;;;;;;;;;;8.40;99.90;;;;;;5214813;27;44551;-80
2022/02/09 07:21:32;;;;;;;;;;;8.30;99.90;;;;;;5196892;27;43922;-80
2022/02/09 07:24:01;;;;;;;;;;;8.40;99.90;;;;;;5195956;27;44051;-80
2022/02/09 07:26:41;;;;;;;;;;;8.30;99.90;;;;;;5196584;27;42797;-80
2022/02/09 07:29:09;;;;;;;;;;;8.40;99.90;;;;;;5216122;27;42876;-80
2022/02/09 07:31:36;;;;;;;;;;;8.30;99.90;;;;;;5197302;27;43400;-80
2022/02/09 07:34:03;;;;;;;;;;;8.40;99.90;;;;;;5216054;27;43827;-80
2022/02/09 07:36:35;;;;;;;;;;;8.30;99.90;;;;;;5216035;27;43080;-80
2022/02/09 07:39:04;;;;;;;;;;;8.40;99.90;;;;;;5197429;27;43699;-80
2022/02/09 07:41:31;;;;;;;;;;;8.40;99.90;;;;;;5216687;27;45684;-80
2022/02/09 07:44:33;;;;;;;;;;;8.30;99.90;;;;;;5197420;27;43695;-80
2022/02/09 07:49:37;;;;;;;;;;;8.30;99.90;;;;;;5215993;27;43855;-80
2022/02/09 07:52:08;;;;;;;;;;;8.30;99.90;;;;;;5216029;27;42011;-80
2022/02/09 07:54:35;;;;;;;;;;;8.30;99.90;;;;;;5216406;27;46189;-80
2022/02/09 07:57:03;;;;;;;;;;;8.40;99.90;;;;;;5216007;27;44644;-80
2022/02/09 07:59:30;;;;;;;;;;;8.30;99.90;;;;;;5215911;27;42689;-80
2022/02/09 08:02:00;;;;;;;;;;;8.30;99.90;;;;;;5196916;27;44280;-80
2022/02/09 08:04:27;;;;;;;;;;;8.40;99.90;;;;;;5197780;27;45979;-80
2022/02/09 08:06:54;;;;;;;;;;;8.40;99.90;;;;;;5197691;27;44816;-80
2022/02/09 08:09:30;;;;;;;;;;;8.30;99.90;;;;;;5216252;27;43876;-80
2022/02/09 08:28:48;;;;;;;;;;;8.30;99.90;;;;;;5215618;27;46607;-80
2022/02/09 08:33:37;;;;;;;;;;;8.40;99.90;;;;;;5216696;27;20020;-80
2022/02/09 08:36:05;;;;;;;;;;;8.30;99.90;;;;;;5197202;27;43213;-80
2022/02/09 08:38:32;;;;;;;;;;;8.30;99.90;;;;;;5196861;27;44293;-80
2022/02/09 08:40:59;;;;;;;;;;;8.40;99.90;;;;;;5196888;27;41940;-80
2022/02/09 08:43:26;;;;;;;;;;;8.30;99.90;;;;;;5196797;27;42716;-80
2022/02/09 08:45:54;;;;;;;;;;;8.30;99.90;;;;;;5196845;27;43546;-80
2022/02/09 08:48:21;;;;;;;;;;;8.30;99.90;;;;;;5196989;27;44210;-80
2022/02/09 08:50:48;;;;;;;;;;;8.30;99.90;;;;;;5215457;27;44343;-80
2022/02/09 08:53:16;;;;;;;;;;;8.30;99.90;;;;;;5196799;27;43530;-80
2022/02/09 08:55:43;;;;;;;;;;;8.30;99.90;;;;;;5196745;27;43503;-80
2022/02/09 08:58:12;;;;;;;;;;;8.30;99.90;;;;;;5215745;27;44601;-80
2022/02/09 09:00:40;;;;;;;;;;;8.40;99.90;;;;;;5197312;27;45051;-80
2022/02/09 09:05:46;;;;;;;;;;;8.40;99.90;;;;;;5216620;27;20021;-80
2022/02/09 10:03:16;;;;;;;;;;;8.30;99.90;;;;;;5214981;27;42563;-80
2022/02/09 10:32:13;;;;;;;;;;;8.30;99.90;;;;;;5215050;27;44221;-80
2022/02/09 10:33:50;;;;;;;;;;;8.30;99.90;;;;;;5200304;27;43373;-80
2022/02/09 10:36:20;;;;;;;;;;;8.30;99.90;;;;;;5215230;27;43332;-80
2022/02/09 10:38:49;;;;;;;;;;;8.30;99.90;;;;;;5196108;27;42772;-80
2022/02/09 10:41:24;;;;;;;;;;;8.40;99.90;;;;;;5215091;27;43976;-80
2022/02/09 10:44:14;;;;;;;;;;;8.40;99.90;;;;;;5215539;27;44569;-80
2022/02/09 10:46:58;;;;;;;;;;;8.40;99.90;;;;;;5196163;27;43315;-80
2022/02/09 10:49:30;;;;;;;;;;;8.40;99.90;;;;;;5196830;27;43305;-80
2022/02/09 10:54:26;;;;;;;;;;;8.40;99.90;;;;;;5214904;27;44647;-80
2022/02/09 10:56:57;;;;;;;;;;;8.40;99.90;;;;;;5196720;27;46154;-80
2022/02/09 10:59:26;;;;;;;;;;;8.40;99.90;;;;;;5196140;27;42804;-80
2022/02/09 11:01:54;;;;;;;;;;;8.40;99.90;;;;;;5216399;27;45323;-80
2022/02/09 11:04:23;;;;;;;;;;;8.40;99.90;;;;;;5216329;27;42726;-80
2022/02/09 11:06:51;;;;;;;;;;;8.40;99.90;;;;;;5197598;27;43959;-80
2022/02/09 11:09:27;;;;;;;;;;;8.40;99.90;;;;;;5199686;27;43525;-80
2022/02/09 11:11:55;;;;;;;;;;;8.40;99.90;;;;;;5216312;27;42973;-80
2022/02/09 11:14:24;;;;;;;;;;;8.40;99.90;;;;;;5197547;27;42597;-80
2022/02/09 11:16:56;;;;;;;;;;;8.40;99.90;;;;;;5216198;27;42785;-80
2022/02/09 11:19:33;;;;;;;;;;;8.40;99.90;;;;;;5197405;27;44306;-80
2022/02/09 11:22:04;;;;;;;;;;;8.40;99.90;;;;;;5216873;27;43496;-80
2022/02/09 11:24:32;;;;;;;;;;;8.40;99.90;;;;;;5197310;27;42740;-80
2022/02/09 11:27:13;;;;;;;;;;;8.50;99.90;;;;;;5197461;27;44325;-80
2022/02/09 11:29:58;;;;;;;;;;;8.50;99.90;;;;;;5197512;27;43886;-80
2022/02/09 11:32:45;;;;;;;;;;;8.50;99.90;;;;;;5216102;27;42878;-80
2022/02/09 11:35:28;;;;;;;;;;;8.50;99.90;;;;;;5197438;27;43489;-80
2022/02/09 11:43:17;;;;;;;;;;;8.60;99.90;;;;;;5216047;27;43505;-79
2022/02/09 11:49:08;;;;;;;;;;;8.60;99.90;;;;;;5216160;27;44203;-80
2022/02/09 11:54:55;;;;;;;;;;;8.70;99.90;;;;;;5216324;27;43604;-80
2022/02/09 12:09:36;;;;;;;;;;;8.90;99.90;;;;;;5215877;27;44235;-80
2022/02/09 12:12:06;;;;;;;;;;;9.00;99.90;;;;;;5216383;27;43950;-80
2022/02/09 12:14:48;;;;;;;;;;;9.00;99.90;;;;;;5197496;27;45284;-80
2022/02/09 12:20:06;;;;;;;;;;;9.10;99.90;;;;;;5216137;27;44317;-80
2022/02/09 12:23:03;;;;;;;;;;;9.10;99.90;;;;;;5197087;27;44201;-80
2022/02/09 12:25:56;;;;;;;;;;;9.10;99.90;;;;;;5215782;27;43907;-80
2022/02/09 12:28:30;;;;;;;;;;;9.10;99.90;;;;;;5216019;27;43950;-80
2022/02/09 12:31:03;;;;;;;;;;;9.10;99.90;;;;;;5215854;27;44199;-80
2022/02/09 12:33:33;;;;;;;;;;;9.20;99.90;;;;;;5216291;27;43085;-80
2022/02/09 12:36:12;;;;;;;;;;;9.20;99.90;;;;;;5215679;27;42680;-80
2022/02/09 12:38:40;;;;;;;;;;;9.20;99.90;;;;;;5215803;27;44136;-80
2022/02/09 12:41:16;;;;;;;;;;;9.20;99.90;;;;;;5197758;27;19992;-80
2022/02/09 12:43:45;;;;;;;;;;;9.20;99.90;;;;;;5216257;27;44765;-80
2022/02/09 12:46:12;;;;;;;;;;;9.20;99.90;;;;;;5215643;27;44210;-80
2022/02/09 12:48:39;;;;;;;;;;;9.20;99.90;;;;;;5196976;27;43632;-80
2022/02/09 12:51:30;;;;;;;;;;;9.20;99.90;;;;;;5198346;27;43072;-80
2022/02/09 12:54:02;;;;;;;;;;;9.20;99.90;;;;;;5198374;27;43105;-80
2022/02/09 12:56:30;;;;;;;;;;;9.20;99.90;;;;;;5197845;27;43987;-80
2022/02/09 12:58:58;;;;;;;;;;;9.30;99.90;;;;;;5196778;27;44249;-80
2022/02/09 13:01:25;;;;;;;;;;;9.20;99.90;;;;;;5196493;27;45758;-80
2022/02/09 13:03:53;;;;;;;;;;;9.30;99.90;;;;;;5197457;27;42085;-80
2022/02/09 13:06:20;;;;;;;;;;;9.30;99.90;;;;;;5196781;27;42602;-80
2022/02/09 13:08:52;;;;;;;;;;;9.30;99.90;;;;;;5215378;27;42654;-80
2022/02/09 13:11:26;;;;;;;;;;;9.30;99.90;;;;;;5197805;27;19988;-80
2022/02/09 13:14:01;;;;;;;;;;;9.30;99.90;;;;;;5197178;27;44391;-80
2022/02/09 13:16:44;;;;;;;;;;;9.40;99.90;;;;;;5197406;27;46007;-80
2022/02/09 14:57:02;;;;;;;;;;;10.00;99.90;;;;;;5214850;27;42981;-81
2022/02/09 14:59:46;;;;;;;;;;;10.00;99.90;;;;;;5215599;27;43272;-81
2022/02/09 15:02:21;;;;;;;;;;;10.00;99.90;;;;;;5195938;27;42757;-81
2022/02/09 15:08:06;;;;;;;;;;;10.00;99.90;;;;;;5215661;27;43566;-81
2022/02/09 15:10:51;;;;;;;;;;;10.10;99.90;;;;;;5214833;27;44266;-81
2022/02/09 15:13:32;;;;;;;;;;;10.00;99.90;;;;;;5196731;27;44243;-81
2022/02/09 15:21:37;;;;;;;;;;;10.10;99.90;;;;;;5214891;27;42081;-81
2022/02/09 15:24:05;;;;;;;;;;;10.10;99.90;;;;;;5196016;27;42682;-81
2022/02/09 15:26:34;;;;;;;;;;;10.10;99.90;;;;;;5196405;27;45387;-81
2022/02/09 15:29:01;;;;;;;;;;;10.10;99.90;;;;;;5195861;27;45823;-80
2022/02/09 15:31:43;;;;;;;;;;;10.10;99.90;;;;;;5214635;27;44932;-81
2022/02/09 15:34:18;;;;;;;;;;;10.10;99.90;;;;;;5196534;27;43331;-81
2022/02/09 15:39:13;;;;;;;;;;;10.10;99.90;;;;;;5214808;27;44128;-81
2022/02/09 16:06:54;;;;;;;;;;;10.20;99.90;;;;;;5216006;27;43069;-81
2022/02/09 16:09:26;;;;;;;;;;;10.10;99.90;;;;;;5216416;27;43365;-81
2022/02/09 16:22:55;;;;;;;;;;;10.20;99.90;;;;;;5216222;27;43968;-81
2022/02/09 16:37:18;;;;;;;;;;;10.20;99.90;;;;;;5216450;27;43758;-81
2022/02/09 16:44:43;;;;;;;;;;;10.20;99.90;;;;;;5216671;27;44149;-81
2022/02/09 16:47:45;;;;;;;;;;;10.10;99.90;;;;;;5216117;27;46057;-81
2022/02/09 16:50:15;;;;;;;;;;;10.10;99.90;;;;;;5215629;27;43509;-81
2022/02/09 16:52:53;;;;;;;;;;;10.10;99.90;;;;;;5215764;27;44251;-81
2022/02/09 16:55:53;;;;;;;;;;;10.20;99.90;;;;;;5215903;27;44184;-81
2022/02/09 17:20:25;;;;;;;;;;;10.20;99.90;;;;;;5215539;27;44321;-81
2022/02/09 17:22:52;;;;;;;;;;;10.10;99.90;;;;;;5196905;27;43381;-81
2022/02/09 17:25:19;;;;;;;;;;;10.10;99.90;;;;;;5196498;27;44328;-81
2022/02/09 17:27:48;;;;;;;;;;;10.10;99.90;;;;;;5196671;27;44167;-81
2022/02/09 17:36:04;;;;;;;;;;;10.10;99.90;;;;;;5226789;27;43145;-81
2022/02/09 17:38:44;;;;;;;;;;;10.10;99.90;;;;;;5215865;27;43869;-81
2022/02/09 17:57:48;;;;;;;;;;;10.00;99.90;;;;;;5215674;27;44886;-81
2022/02/09 18:00:16;;;;;;;;;;;10.00;99.90;;;;;;5196842;27;43877;-81
2022/02/09 18:02:53;;;;;;;;;;;9.90;99.90;;;;;;5214861;27;45297;-81
2022/02/09 18:05:29;;;;;;;;;;;10.00;99.90;;;;;;5215170;27;42689;-81
2022/02/09 18:08:07;;;;;;;;;;;9.90;99.90;;;;;;5196746;27;44168;-81
2022/02/09 19:04:44;;;;;;;;;;;9.70;99.90;;;;;;5215388;27;42718;-81
2022/02/09 19:07:33;;;;;;;;;;;9.70;99.90;;;;;;5196857;27;44391;-81
2022/02/09 19:27:01;;;;;;;;;;;9.60;99.90;;;;;;5216253;27;42359;-81
2022/02/09 19:40:49;;;;;;;;;;;9.60;99.90;;;;;;5173372;27;45111;-81
2022/02/09 19:48:42;;;;;;;;;;;9.50;99.90;;;;;;5216873;27;43135;-81
2022/02/09 19:54:09;;;;;;;;;;;9.50;99.90;;;;;;5215905;27;43906;-81
2022/02/09 19:56:39;;;;;;;;;;;9.50;99.90;;;;;;5216955;27;44273;-80
2022/02/09 19:59:16;;;;;;;;;;;9.50;99.90;;;;;;5216406;27;43575;-81
2022/02/09 20:01:44;;;;;;;;;;;9.50;99.90;;;;;;5197371;27;43481;-80
2022/02/09 20:04:12;;;;;;;;;;;9.50;99.90;;;;;;5197899;27;43263;-81
2022/02/09 20:06:39;;;;;;;;;;;9.50;99.90;;;;;;5215952;27;42710;-81
2022/02/09 20:09:06;;;;;;;;;;;9.50;99.90;;;;;;5216001;27;43260;-81
2022/02/09 20:11:37;;;;;;;;;;;9.50;99.90;;;;;;5197259;27;43530;-81
2022/02/09 20:14:04;;;;;;;;;;;9.40;99.90;;;;;;5197458;27;43549;-81
2022/02/09 20:16:31;;;;;;;;;;;9.40;99.90;;;;;;5216464;27;43529;-81
2022/02/09 20:18:58;;;;;;;;;;;9.40;99.90;;;;;;5197074;27;43414;-81
2022/02/09 20:21:29;;;;;;;;;;;9.40;99.90;;;;;;5197552;27;42948;-81
2022/02/09 20:23:57;;;;;;;;;;;9.40;99.90;;;;;;5216432;27;43875;-81
2022/02/09 20:26:25;;;;;;;;;;;9.40;99.90;;;;;;5197609;27;43196;-81
2022/02/09 20:28:57;;;;;;;;;;;9.40;99.90;;;;;;5198815;27;19996;-81
2022/02/09 20:31:30;;;;;;;;;;;9.40;99.90;;;;;;5197701;27;43289;-81
2022/02/09 20:34:14;;;;;;;;;;;9.40;99.90;;;;;;5216196;27;44270;-80
2022/02/09 20:36:43;;;;;;;;;;;9.40;99.90;;;;;;5216404;27;44254;-81
2022/02/09 20:39:12;;;;;;;;;;;9.40;99.90;;;;;;5215551;27;44978;-81
2022/02/09 20:41:40;;;;;;;;;;;9.30;99.90;;;;;;5215693;27;42597;-81
2022/02/09 20:44:20;;;;;;;;;;;9.30;99.90;;;;;;5196879;27;43933;-80
2022/02/09 20:46:47;;;;;;;;;;;9.30;99.90;;;;;;5197593;27;44024;-80
2022/02/09 20:49:15;;;;;;;;;;;9.30;99.90;;;;;;5197136;27;43289;-80
2022/02/09 20:51:42;;;;;;;;;;;9.30;99.90;;;;;;5215611;27;42674;-81
2022/02/09 20:54:09;;;;;;;;;;;9.30;99.90;;;;;;5215554;27;44116;-80
2022/02/09 20:56:36;;;;;;;;;;;9.20;99.90;;;;;;5196763;27;43773;-80
2022/02/09 20:59:07;;;;;;;;;;;9.20;99.90;;;;;;5197932;27;20359;-81
2022/02/09 21:01:52;;;;;;;;;;;9.20;99.90;;;;;;5197264;27;45712;-80
2022/02/09 21:04:23;;;;;;;;;;;9.30;99.90;;;;;;5216381;27;43325;-80
2022/02/09 21:07:16;;;;;;;;;;;9.20;99.90;;;;;;5215922;27;42653;-81
2022/02/09 21:10:16;;;;;;;;;;;9.20;99.90;;;;;;5216020;27;43124;-81
2022/02/09 21:12:48;;;;;;;;;;;9.20;99.90;;;;;;5214614;27;42945;-80
2022/02/09 21:53:32;;;;;;;;;;;9.00;99.90;;;;;;5215901;27;43969;-81
2022/02/09 21:56:15;;;;;;;;;;;8.90;99.90;;;;;;5213391;27;43289;-81
2022/02/09 21:59:20;;;;;;;;;;;8.90;99.90;;;;;;5215056;27;45419;-80
2022/02/09 22:21:14;;;;;;;;;;;8.80;99.90;;;;;;5215145;27;43955;-81
2022/02/09 22:24:51;;;;;;;;;;;8.90;99.90;;;;;;5196330;27;42844;-80
2022/02/09 22:32:49;;;;;;;;;;;8.80;99.90;;;;;;5215994;27;19994;-81
2022/02/09 22:46:30;;;;;;;;;;;8.70;99.90;;;;;;5215806;27;43879;-81
2022/02/09 22:56:53;;;;;;;;;;;8.70;99.90;;;;;;5215578;27;43064;-81
2022/02/09 22:59:33;;;;;;;;;;;8.70;99.90;;;;;;5197595;27;44019;-81
2022/02/09 23:02:09;;;;;;;;;;;8.70;99.90;;;;;;5217251;27;20002;-81
2022/02/09 23:04:57;;;;;;;;;;;8.70;99.90;;;;;;5198026;27;43537;-81
2022/02/09 23:14:17;;;;;;;;;;;8.70;99.90;;;;;;5169716;27;43326;-81
2022/02/09 23:16:40;;;;;;;;;;;8.70;99.90;;;;;;5205011;27;44057;-81
